Time;durP1;ratioP1;P1;durP2;ratioP2;P2;SDS_P1;SDS_P2;PMS_P1;PMS_P2;Temp;Humidity;BMP_temperature;BMP_pressure;BME280_temperature;BME280_humidity;BME280_pressure;Samples;Min_cycle;Max_cycle;Signal;HPM_P1;HPM_P2
2021/12/23 00:01:55;;;;;;;19.30;9.50;;;;;;;3.27;58.98;101661.69;5010118;28;123808;-66
2021/12/23 00:04:23;;;;;;;19.05;9.82;;;;;;;3.29;58.94;101644.22;5009053;28;124246;-68
2021/12/23 00:06:50;;;;;;;24.83;9.45;;;;;;;3.30;58.90;101630.28;5010444;28;116288;-66
2021/12/23 00:09:17;;;;;;;21.23;9.85;;;;;;;3.30;58.88;101646.00;5002243;28;114137;-66
2021/12/23 00:11:44;;;;;;;21.77;10.38;;;;;;;3.30;58.93;101643.38;5017116;28;123936;-66
2021/12/23 00:14:13;;;;;;;21.80;9.90;;;;;;;3.34;58.83;101640.75;5004181;28;123780;-67
2021/12/23 00:16:55;;;;;;;21.40;9.85;;;;;;;3.37;58.77;101609.31;5016090;28;114359;-67
2021/12/23 00:24:42;;;;;;;20.58;9.88;;;;;;;3.35;58.74;101611.06;5023258;28;124226;-66
2021/12/23 00:27:10;;;;;;;23.13;10.57;;;;;;;3.37;58.92;101617.16;5003027;28;114140;-66
2021/12/23 00:29:38;;;;;;;22.33;10.45;;;;;;;3.36;58.93;101612.81;5002415;28;113016;-66
2021/12/23 00:32:08;;;;;;;19.80;9.45;;;;;;;3.38;58.78;101605.84;5017539;28;124288;-65
2021/12/23 00:34:37;;;;;;;22.55;9.93;;;;;;;3.40;58.65;101614.56;5003333;28;123247;-66
2021/12/23 00:37:07;;;;;;;19.75;9.52;;;;;;;3.41;58.74;101611.03;5017397;28;114858;-66
2021/12/23 00:39:34;;;;;;;19.58;10.13;;;;;;;3.42;58.71;101602.31;5014638;28;114334;-65
2021/12/23 00:42:07;;;;;;;21.45;10.25;;;;;;;3.42;58.90;101576.13;5011362;28;125789;-66
2021/12/23 00:44:38;;;;;;;20.55;9.93;;;;;;;3.42;58.52;101560.44;5012121;28;124634;-67
2021/12/23 00:47:06;;;;;;;22.10;10.50;;;;;;;3.40;58.69;101556.94;5010479;28;114558;-66
2021/12/23 00:49:33;;;;;;;19.08;9.82;;;;;;;3.39;58.50;101565.66;5007478;28;113106;-67
2021/12/23 00:52:03;;;;;;;22.83;10.18;;;;;;;3.39;58.98;101581.38;4997093;28;123805;-66
2021/12/23 00:54:30;;;;;;;19.20;10.10;;;;;;;3.42;58.84;101561.28;4999160;28;122851;-66
2021/12/23 00:56:57;;;;;;;20.20;9.82;;;;;;;3.43;58.66;101560.44;5021231;28;114935;-66
2021/12/23 00:59:25;;;;;;;23.23;10.40;;;;;;;3.43;58.55;101557.81;5010163;28;115218;-66
2021/12/23 01:01:52;;;;;;;23.15;11.00;;;;;;;3.44;58.72;101574.38;5011886;27;123834;-66
2021/12/23 01:04:21;;;;;;;23.67;11.00;;;;;;;3.43;58.87;101568.28;5011752;28;123595;-65
2021/12/23 01:06:48;;;;;;;19.58;10.25;;;;;;;3.45;58.76;101570.91;5008201;28;113826;-66
2021/12/23 01:09:15;;;;;;;23.92;10.85;;;;;;;3.46;58.80;101572.63;5015464;28;114697;-66
2021/12/23 01:11:43;;;;;;;20.77;11.13;;;;;;;3.48;58.64;101581.34;5008861;28;123844;-66
2021/12/23 01:17:11;;;;;;;21.25;10.50;;;;;;;3.50;58.70;101566.50;5008207;28;114131;-66
2021/12/23 01:19:39;;;;;;;19.92;10.35;;;;;;;3.52;58.59;101575.22;5012386;28;113233;-66
2021/12/23 01:22:08;;;;;;;21.98;10.35;;;;;;;3.51;58.61;101565.63;5017009;28;123810;-66
2021/12/23 01:24:35;;;;;;;25.48;10.75;;;;;;;3.52;58.61;101564.75;5009274;28;124591;-66
2021/12/23 01:27:03;;;;;;;20.77;10.65;;;;;;;3.54;58.63;101549.88;5007803;28;114726;-66
2021/12/23 01:29:30;;;;;;;20.23;10.48;;;;;;;3.53;58.52;101550.78;5008254;28;114340;-66
2021/12/23 01:31:57;;;;;;;23.73;10.82;;;;;;;3.53;58.47;101569.13;5009633;28;123972;-66
2021/12/23 01:34:24;;;;;;;21.80;10.50;;;;;;;3.54;58.38;101578.69;5009392;28;124735;-66
2021/12/23 01:36:51;;;;;;;22.88;10.98;;;;;;;3.55;58.67;101572.59;5009278;28;115151;-66
2021/12/23 01:39:18;;;;;;;23.25;10.80;;;;;;;3.55;58.56;101556.88;5013023;28;113851;-66
2021/12/23 01:41:46;;;;;;;22.95;10.80;;;;;;;3.56;58.86;101558.63;5008594;28;124220;-66
2021/12/23 01:44:13;;;;;;;23.70;11.05;;;;;;;3.57;58.53;101544.66;5007385;28;123662;-66
2021/12/23 01:46:40;;;;;;;22.50;11.00;;;;;;;3.56;58.99;101537.69;5013317;28;115791;-65
2021/12/23 01:49:07;;;;;;;20.70;10.63;;;;;;;3.57;58.44;101544.66;5011786;28;115111;-65
2021/12/23 01:51:36;;;;;;;23.35;11.00;;;;;;;3.56;58.55;101542.91;5008332;28;124504;-65
2021/12/23 01:54:04;;;;;;;24.17;11.52;;;;;;;3.56;58.61;101536.78;5015371;28;123684;-65
2021/12/23 01:56:31;;;;;;;25.40;11.02;;;;;;;3.58;58.55;101548.13;5007710;28;114591;-65
2021/12/23 01:58:58;;;;;;;21.10;10.73;;;;;;;3.58;58.80;101545.50;5009645;28;115182;-65
2021/12/23 02:01:25;;;;;;;22.75;11.43;;;;;;;3.59;58.51;101537.66;5010445;28;123838;-65
2021/12/23 02:03:53;;;;;;;21.92;10.98;;;;;;;3.60;58.62;101534.16;5006365;28;124254;-65
2021/12/23 02:06:20;;;;;;;21.00;10.60;;;;;;;3.60;58.50;101523.69;5022213;28;114210;-65
2021/12/23 02:08:47;;;;;;;23.30;10.73;;;;;;;3.60;58.31;101521.06;4992280;28;113049;-65
2021/12/23 02:11:14;;;;;;;23.50;11.15;;;;;;;3.61;58.62;101519.31;4997978;28;123787;-66
2021/12/23 02:13:42;;;;;;;21.70;10.82;;;;;;;3.60;58.53;101517.56;4996024;28;123803;-65
2021/12/23 02:16:09;;;;;;;22.88;11.07;;;;;;;3.60;58.34;101518.44;5002920;28;113963;-65
2021/12/23 02:18:36;;;;;;;23.88;11.02;;;;;;;3.59;58.50;101506.22;5024808;28;114157;-65
2021/12/23 02:21:05;;;;;;;22.45;11.00;;;;;;;3.57;58.27;101502.75;5008533;28;124137;-65
2021/12/23 02:23:33;;;;;;;23.88;11.35;;;;;;;3.56;58.33;101490.53;5012642;28;123738;-65
2021/12/23 02:26:00;;;;;;;22.60;10.68;;;;;;;3.54;58.39;101466.09;5013270;28;114890;-66
2021/12/23 02:28:28;;;;;;;27.75;11.45;;;;;;;3.50;58.36;101474.84;4979058;28;113830;-64
2021/12/23 02:30:56;;;;;;;27.38;11.20;;;;;;;3.48;58.29;101492.31;5014708;28;124251;-64
2021/12/23 02:33:26;;;;;;;23.52;11.07;;;;;;;3.45;58.47;101492.34;5012273;28;124674;-65
2021/12/23 02:35:56;;;;;;;23.30;10.27;;;;;;;3.45;58.31;101476.63;5009497;28;115526;-65
2021/12/23 02:38:24;;;;;;;22.95;10.85;;;;;;;3.43;58.29;101476.63;5016007;28;115205;-65
2021/12/23 02:40:51;;;;;;;22.58;11.02;;;;;;;3.42;58.18;101468.78;5005949;28;123748;-65
2021/12/23 02:43:26;;;;;;;22.95;11.10;;;;;;;3.39;58.30;101461.81;5009545;28;124713;-64
2021/12/23 02:45:56;;;;;;;22.90;11.00;;;;;;;3.38;58.26;101453.97;5009654;28;115004;-64
2021/12/23 02:48:29;;;;;;;21.50;10.20;;;;;;;3.34;58.30;101458.34;5017700;28;114170;-65
2021/12/23 02:50:57;;;;;;;21.58;10.68;;;;;;;3.31;58.21;101464.50;5014681;28;124926;-65
2021/12/23 02:53:24;;;;;;;22.02;10.23;;;;;;;3.30;58.45;101467.97;5020567;28;123722;-65
2021/12/23 02:55:57;;;;;;;22.60;11.40;;;;;;;3.28;57.97;101463.63;5006868;28;113977;-65
2021/12/23 02:58:25;;;;;;;24.27;9.90;;;;;;;3.27;58.15;101473.22;5017463;28;114143;-65
2021/12/23 03:00:54;;;;;;;25.90;11.65;;;;;;;3.25;58.22;101480.19;4995436;28;123360;-65
2021/12/23 03:03:22;;;;;;;24.02;11.05;;;;;;;3.26;58.27;101481.09;5014584;28;123686;-65
2021/12/23 03:05:50;;;;;;;22.38;10.48;;;;;;;3.25;58.34;101474.09;5018512;28;114395;-65
2021/12/23 03:08:32;;;;;;;22.40;10.77;;;;;;;3.23;58.32;101461.03;5021113;28;113780;-65
2021/12/23 03:11:00;;;;;;;25.00;10.48;;;;;;;3.22;58.20;101454.06;5018877;28;124231;-65
2021/12/23 03:13:27;;;;;;;23.35;10.63;;;;;;;3.20;58.23;101445.34;5017672;28;123796;-65
2021/12/23 03:15:55;;;;;;;23.73;10.85;;;;;;;3.19;58.33;101438.34;4999931;28;113344;-65
2021/12/23 03:18:22;;;;;;;23.42;11.25;;;;;;;3.20;58.47;101445.34;5010684;28;113841;-65
2021/12/23 03:20:50;;;;;;;21.42;10.25;;;;;;;3.18;58.19;101449.69;5010525;28;124407;-65
2021/12/23 03:23:17;;;;;;;23.50;10.65;;;;;;;3.18;58.34;101447.06;5015586;28;123815;-65
2021/12/23 03:25:44;;;;;;;23.00;10.68;;;;;;;3.18;58.15;101441.84;5010283;28;115177;-65
2021/12/23 03:28:12;;;;;;;23.50;10.70;;;;;;;3.16;58.23;101438.38;5012559;28;115042;-65
2021/12/23 03:30:40;;;;;;;21.85;10.05;;;;;;;3.14;58.12;101434.88;5014579;28;124498;-65
2021/12/23 03:33:07;;;;;;;24.50;10.70;;;;;;;3.12;58.23;101436.66;5021403;28;125649;-65
2021/12/23 03:35:35;;;;;;;26.48;11.15;;;;;;;3.11;58.00;101440.16;5021869;28;114354;-64
2021/12/23 03:38:03;;;;;;;25.40;10.88;;;;;;;3.09;58.18;101436.69;5025544;28;113857;-65
2021/12/23 03:40:30;;;;;;;21.42;10.55;;;;;;;3.06;58.11;101428.84;5021325;28;122606;-65
2021/12/23 03:42:58;;;;;;;27.15;11.40;;;;;;;3.03;58.01;101420.97;5018637;28;123588;-65
2021/12/23 03:45:25;;;;;;;24.40;11.43;;;;;;;3.00;58.01;101406.19;5016087;28;114823;-65
2021/12/23 03:47:53;;;;;;;22.17;11.10;;;;;;;2.97;57.84;101405.31;5016220;28;114812;-65
2021/12/23 03:50:23;;;;;;;22.77;11.10;;;;;;;2.91;58.00;101391.38;4999305;28;122943;-64
2021/12/23 03:52:51;;;;;;;25.80;10.93;;;;;;;2.89;57.93;101395.75;5016861;28;124214;-64
2021/12/23 03:55:18;;;;;;;26.50;11.25;;;;;;;2.85;57.92;101396.66;4999741;28;115009;-65
2021/12/23 03:57:46;;;;;;;23.17;10.55;;;;;;;2.83;57.96;101392.31;5009651;28;112941;-65
2021/12/23 04:00:17;;;;;;;21.88;10.98;;;;;;;2.79;57.99;101388.84;5011156;28;124245;-64
2021/12/23 04:02:45;;;;;;;24.05;10.60;;;;;;;2.77;58.00;101372.28;5019623;28;124610;-65
2021/12/23 04:05:13;;;;;;;23.45;11.15;;;;;;;2.75;57.84;101353.13;5011842;28;114020;-65
2021/12/23 04:07:40;;;;;;;23.13;11.35;;;;;;;2.72;57.82;101342.66;5007656;28;113546;-65
2021/12/23 04:10:10;;;;;;;26.73;10.25;;;;;;;2.68;58.02;101340.94;5016530;28;124525;-64
2021/12/23 04:12:38;;;;;;;21.83;10.35;;;;;;;2.64;57.97;101344.44;5017717;28;123981;-64
2021/12/23 04:15:05;;;;;;;22.98;11.10;;;;;;;2.62;57.99;101335.72;5010698;28;115021;-64
2021/12/23 04:17:37;;;;;;;24.00;11.00;;;;;;;2.59;58.09;101336.59;5015784;28;114830;-64
2021/12/23 04:20:23;;;;;;;25.85;11.80;;;;;;;2.57;58.24;101347.94;5022672;28;124778;-65
2021/12/23 04:22:53;;;;;;;26.08;10.88;;;;;;;2.56;58.05;101333.13;5019535;28;124015;-65
2021/12/23 04:25:23;;;;;;;24.75;10.95;;;;;;;2.56;58.12;101347.06;5012064;28;114321;-64
2021/12/23 04:27:53;;;;;;;24.00;10.82;;;;;;;2.55;58.17;101334.03;4997599;28;113228;-64
2021/12/23 04:30:21;;;;;;;22.42;10.45;;;;;;;2.56;58.14;101330.50;5022735;28;123767;-64
2021/12/23 04:32:49;;;;;;;27.45;11.95;;;;;;;2.53;58.00;101327.03;5013601;28;124172;-64
2021/12/23 04:35:16;;;;;;;23.77;11.45;;;;;;;2.52;58.11;101324.41;5014578;28;114188;-64
2021/12/23 04:37:43;;;;;;;23.67;10.93;;;;;;;2.52;58.22;101330.53;5012587;28;113809;-64
2021/12/23 04:40:11;;;;;;;28.65;11.98;;;;;;;2.55;58.21;101320.94;5009550;28;125035;-64
2021/12/23 04:42:39;;;;;;;25.67;11.48;;;;;;;2.55;58.26;101307.88;5013620;28;124488;-64
2021/12/23 04:45:08;;;;;;;25.55;12.15;;;;;;;2.53;58.29;101321.81;5019345;28;114507;-64
2021/12/23 04:47:37;;;;;;;25.50;12.30;;;;;;;2.53;58.07;101324.41;5012477;28;113820;-64
2021/12/23 04:50:07;;;;;;;22.58;10.48;;;;;;;2.53;58.14;101327.03;5010389;28;124075;-64
2021/12/23 04:52:34;;;;;;;26.20;11.50;;;;;;;2.54;58.13;101317.44;5005257;28;122750;-64
2021/12/23 04:55:02;;;;;;;25.27;11.43;;;;;;;2.56;58.24;101320.06;5014986;28;114973;-64
2021/12/23 04:57:29;;;;;;;25.13;11.48;;;;;;;2.55;58.30;101327.03;5014660;28;114013;-63
2021/12/23 04:59:57;;;;;;;26.20;11.60;;;;;;;2.56;58.08;101312.22;5012568;28;123976;-63
2021/12/23 05:02:24;;;;;;;27.25;12.20;;;;;;;2.57;58.17;101316.56;5009333;28;123748;-63
2021/12/23 05:04:52;;;;;;;22.63;11.20;;;;;;;2.58;58.20;101307.84;5010641;28;115617;-63
2021/12/23 05:07:19;;;;;;;25.83;12.15;;;;;;;2.58;58.22;101311.34;5017565;28;115011;-63
2021/12/23 05:09:46;;;;;;;26.98;11.07;;;;;;;2.59;58.26;101309.59;5006606;28;123346;-65
2021/12/23 05:12:14;;;;;;;25.58;11.52;;;;;;;2.59;58.12;101309.59;5010844;28;124614;-64
2021/12/23 05:14:41;;;;;;;24.58;11.32;;;;;;;2.60;58.06;101306.09;4993115;28;113309;-64
2021/12/23 05:17:08;;;;;;;25.10;11.18;;;;;;;2.61;58.28;101292.16;5009520;28;114049;-64
2021/12/23 05:19:35;;;;;;;26.75;11.68;;;;;;;2.61;58.03;101289.53;5011700;28;124008;-63
2021/12/23 05:22:03;;;;;;;25.10;11.50;;;;;;;2.61;58.12;101281.69;5009487;28;124343;-63
2021/12/23 05:24:30;;;;;;;24.17;11.07;;;;;;;2.60;58.20;101279.94;5013474;28;114514;-64
2021/12/23 05:26:57;;;;;;;23.30;11.23;;;;;;;2.61;58.08;101279.06;5013599;28;113752;-64
2021/12/23 05:29:25;;;;;;;29.40;12.60;;;;;;;2.62;58.27;101267.72;5017353;28;123803;-64
2021/12/23 05:31:52;;;;;;;27.00;11.85;;;;;;;2.64;58.24;101268.59;4991963;28;122785;-64
2021/12/23 05:34:19;;;;;;;27.85;12.30;;;;;;;2.66;58.38;101259.00;5014191;28;114857;-63
2021/12/23 05:36:46;;;;;;;26.70;12.45;;;;;;;2.68;58.30;101252.03;5009989;28;113882;-63
2021/12/23 05:39:13;;;;;;;24.80;11.88;;;;;;;2.70;58.32;101260.72;5016167;28;123846;-63
2021/12/23 05:41:40;;;;;;;24.90;11.90;;;;;;;2.72;58.32;101269.44;5008242;28;124481;-63
2021/12/23 05:44:08;;;;;;;26.65;11.95;;;;;;;2.74;58.20;101272.91;5008656;28;114121;-64
2021/12/23 05:46:35;;;;;;;27.27;11.70;;;;;;;2.76;58.27;101268.53;5009788;28;114118;-64
2021/12/23 05:49:02;;;;;;;26.63;11.70;;;;;;;2.78;58.31;101264.16;5022229;27;125329;-64
2021/12/23 05:51:29;;;;;;;26.17;11.52;;;;;;;2.79;58.26;101247.59;5008906;28;124389;-63
2021/12/23 05:53:57;;;;;;;27.85;11.50;;;;;;;2.82;58.26;101255.41;5019306;28;114934;-63
2021/12/23 05:56:28;;;;;;;25.52;11.38;;;;;;;2.83;58.16;101257.16;5001123;28;114518;-64
2021/12/23 05:58:55;;;;;;;25.20;11.55;;;;;;;2.87;58.18;101263.22;5012580;28;124300;-64
2021/12/23 06:01:23;;;;;;;26.70;12.00;;;;;;;2.89;58.56;101266.72;5013691;28;123882;-64
2021/12/23 06:03:50;;;;;;;23.23;11.52;;;;;;;2.91;58.24;101255.34;5009735;28;114305;-64
2021/12/23 06:06:17;;;;;;;24.02;11.32;;;;;;;2.92;58.23;101236.16;5010123;28;114144;-64
2021/12/23 06:08:45;;;;;;;26.45;12.73;;;;;;;2.92;58.19;101236.16;5013389;28;123785;-63
2021/12/23 06:11:12;;;;;;;29.25;12.15;;;;;;;2.91;58.26;101250.09;5009853;28;124100;-63
2021/12/23 06:13:39;;;;;;;25.73;11.35;;;;;;;2.92;58.21;101257.09;5009119;28;114332;-64
2021/12/23 06:16:08;;;;;;;24.95;11.70;;;;;;;2.93;58.16;101257.94;4997852;28;112819;-63
2021/12/23 06:18:36;;;;;;;23.92;12.00;;;;;;;2.93;58.10;101264.03;5018874;28;124086;-63
2021/12/23 06:21:03;;;;;;;26.90;12.43;;;;;;;2.94;58.46;101254.47;5010014;28;123741;-63
2021/12/23 06:23:31;;;;;;;23.92;11.98;;;;;;;2.95;58.10;101255.34;5016060;28;115186;-63
2021/12/23 06:25:59;;;;;;;29.23;12.32;;;;;;;2.93;58.20;101253.59;5012298;28;114847;-63
2021/12/23 06:28:26;;;;;;;25.15;11.82;;;;;;;2.93;58.12;101248.34;5012397;28;124038;-63
2021/12/23 06:30:53;;;;;;;26.55;12.15;;;;;;;2.91;58.22;101239.66;5008596;28;124217;-63
2021/12/23 06:33:21;;;;;;;25.10;12.02;;;;;;;2.90;58.08;101227.47;5004676;28;114164;-63
2021/12/23 06:35:50;;;;;;;26.67;12.93;;;;;;;2.89;58.04;101220.47;5019129;28;114086;-63
2021/12/23 06:38:17;;;;;;;27.10;12.45;;;;;;;2.87;57.97;101206.53;5009520;28;124098;-63
2021/12/23 06:40:45;;;;;;;24.75;12.52;;;;;;;2.84;57.90;101196.09;5011388;28;124209;-63
2021/12/23 06:43:12;;;;;;;25.80;13.07;;;;;;;2.82;58.13;101203.09;5014665;28;115076;-63
2021/12/23 06:45:39;;;;;;;27.77;12.25;;;;;;;2.82;58.22;101207.47;5012308;28;115288;-62
2021/12/23 06:48:06;;;;;;;26.73;12.23;;;;;;;2.81;58.32;101196.13;5001720;28;123931;-62
2021/12/23 06:50:34;;;;;;;25.67;12.30;;;;;;;2.79;58.29;101197.91;5010670;28;123816;-62
2021/12/23 06:53:01;;;;;;;23.10;12.02;;;;;;;2.79;58.17;101203.13;5013587;28;114378;-62
2021/12/23 06:55:28;;;;;;;26.85;12.27;;;;;;;2.79;58.13;101197.91;5007623;28;114011;-62
2021/12/23 06:57:57;;;;;;;24.35;12.45;;;;;;;2.78;58.31;101211.84;5018049;28;123813;-62
2021/12/23 07:00:27;;;;;;;26.80;11.73;;;;;;;2.79;58.20;101218.81;5013799;28;123992;-63
2021/12/23 07:02:55;;;;;;;28.55;12.40;;;;;;;2.80;58.20;101199.63;5024429;28;114033;-63
2021/12/23 07:05:24;;;;;;;26.42;12.25;;;;;;;2.80;58.33;101189.16;5015495;28;113977;-63
2021/12/23 07:07:55;;;;;;;25.80;11.85;;;;;;;2.80;58.39;101189.16;5018660;28;124890;-63
2021/12/23 07:10:25;;;;;;;23.13;11.70;;;;;;;2.80;58.34;101194.38;5000123;28;123680;-63
2021/12/23 07:12:53;;;;;;;27.75;12.48;;;;;;;2.82;58.43;101197.84;5016377;28;114537;-63
2021/12/23 07:15:23;;;;;;;25.65;11.27;;;;;;;2.84;58.34;101201.31;5011162;28;115300;-63
2021/12/23 07:17:56;;;;;;;25.70;11.50;;;;;;;2.87;58.37;101203.94;5016680;28;124365;-63
2021/12/23 07:20:24;;;;;;;24.35;11.65;;;;;;;2.90;58.42;101211.75;5014357;28;124544;-63
2021/12/23 07:22:51;;;;;;;24.90;11.68;;;;;;;2.93;58.40;101206.50;5006118;28;113586;-63
2021/12/23 07:25:19;;;;;;;27.20;12.43;;;;;;;2.96;58.48;101209.97;5010734;28;113959;-63
2021/12/23 07:27:47;;;;;;;26.88;11.82;;;;;;;2.97;58.50;101211.72;5001190;28;123911;-63
2021/12/23 07:30:16;;;;;;;26.10;11.20;;;;;;;3.01;58.46;101213.41;5013111;28;122863;-64
2021/12/23 07:32:43;;;;;;;28.60;12.48;;;;;;;3.04;58.68;101208.16;5012002;28;115180;-63
2021/12/23 07:35:11;;;;;;;29.88;11.95;;;;;;;3.07;58.60;101208.13;5020499;28;115557;-64
2021/12/23 07:37:43;;;;;;;26.90;12.07;;;;;;;3.10;58.48;101192.41;5016960;28;123759;-64
2021/12/23 07:40:16;;;;;;;28.10;12.25;;;;;;;3.10;58.51;101198.50;5015286;28;124123;-64
2021/12/23 07:42:53;;;;;;;25.38;11.95;;;;;;;3.13;58.57;101197.63;5019997;28;113598;-64
2021/12/23 07:45:26;;;;;;;29.10;12.25;;;;;;;3.16;58.48;101194.97;5009485;28;114791;-64
2021/12/23 07:47:54;;;;;;;29.58;13.05;;;;;;;3.18;58.71;101201.06;5012822;28;124415;-64
2021/12/23 07:50:23;;;;;;;26.55;12.30;;;;;;;3.19;58.62;101192.34;5012007;28;124152;-64
2021/12/23 07:52:50;;;;;;;26.63;12.60;;;;;;;3.21;58.33;101201.03;5010864;28;114094;-64
2021/12/23 07:55:18;;;;;;;28.67;12.15;;;;;;;3.22;58.32;101192.31;5010239;28;115646;-64
2021/12/23 07:57:45;;;;;;;29.88;13.05;;;;;;;3.25;58.64;101196.66;5016249;28;124295;-63
2021/12/23 08:00:13;;;;;;;27.23;12.02;;;;;;;3.28;58.55;101194.88;5011854;28;124566;-63
2021/12/23 08:02:42;;;;;;;27.55;12.82;;;;;;;3.29;58.46;101199.19;5017294;28;114338;-62
2021/12/23 08:05:10;;;;;;;27.80;11.70;;;;;;;3.33;58.71;101205.28;5017228;28;113891;-62
2021/12/23 08:07:37;;;;;;;24.70;12.10;;;;;;;3.38;58.52;101207.88;5012371;28;124043;-64
2021/12/23 08:10:05;;;;;;;28.65;12.32;;;;;;;3.41;58.67;101202.59;5012162;28;123943;-64
2021/12/23 08:12:32;;;;;;;29.73;12.68;;;;;;;3.43;58.70;101200.84;5010878;28;114131;-64
2021/12/23 08:14:59;;;;;;;27.15;12.30;;;;;;;3.47;58.54;101202.56;5013498;28;114399;-63
2021/12/23 08:17:37;;;;;;;26.80;12.55;;;;;;;3.50;58.44;101202.50;5013354;28;124037;-64
2021/12/23 08:20:10;;;;;;;25.70;12.52;;;;;;;3.52;58.44;101195.50;5011923;28;123671;-65
2021/12/23 08:22:39;;;;;;;29.13;11.98;;;;;;;3.54;58.52;101188.50;5019528;28;114837;-64
2021/12/23 08:25:07;;;;;;;26.67;12.25;;;;;;;3.57;58.40;101191.09;5014515;28;115709;-64
2021/12/23 08:27:35;;;;;;;30.58;12.43;;;;;;;3.58;58.80;101190.22;5012058;28;124026;-64
2021/12/23 08:30:05;;;;;;;26.67;12.10;;;;;;;3.59;58.57;101191.94;5005185;28;122832;-64
2021/12/23 08:32:32;;;;;;;31.85;13.50;;;;;;;3.59;58.46;101191.94;5018521;28;114209;-64
2021/12/23 08:35:00;;;;;;;26.70;12.50;;;;;;;3.61;58.39;101190.16;5018926;28;114460;-64
2021/12/23 08:37:27;;;;;;;27.80;12.77;;;;;;;3.60;58.57;101188.44;5006014;28;123046;-64
2021/12/23 08:39:54;;;;;;;27.55;13.20;;;;;;;3.63;58.58;101183.16;5019104;28;124029;-64
2021/12/23 08:42:22;;;;;;;25.48;12.13;;;;;;;3.65;58.77;101178.75;5015795;28;113941;-64
2021/12/23 08:44:49;;;;;;;29.25;12.57;;;;;;;3.69;58.52;101172.63;5012832;28;113839;-64
2021/12/23 08:47:16;;;;;;;24.92;11.88;;;;;;;3.72;58.81;101170.88;5012774;28;123287;-64
2021/12/23 08:49:45;;;;;;;30.20;13.27;;;;;;;3.74;58.40;101158.59;5011217;28;123895;-65
2021/12/23 08:52:13;;;;;;;25.60;12.25;;;;;;;3.76;58.45;101154.22;5016683;28;114349;-65
2021/12/23 08:54:42;;;;;;;30.08;13.30;;;;;;;3.76;58.43;101146.34;5021353;28;114072;-63
2021/12/23 08:57:10;;;;;;;31.30;13.15;;;;;;;3.77;58.44;101148.06;5014809;28;124940;-63
2021/12/23 08:59:38;;;;;;;27.08;12.93;;;;;;;3.78;58.47;101140.19;5009393;28;124057;-63
2021/12/23 09:02:06;;;;;;;27.25;12.38;;;;;;;3.80;58.54;101142.81;5014421;28;114353;-63
2021/12/23 09:04:34;;;;;;;28.92;12.75;;;;;;;3.83;58.60;101137.53;5030297;28;113871;-63
2021/12/23 09:07:02;;;;;;;23.88;12.20;;;;;;;3.87;58.49;101128.75;5016360;28;124589;-63
2021/12/23 09:09:33;;;;;;;24.42;12.20;;;;;;;3.89;58.42;101126.97;5009302;28;124734;-63
2021/12/23 09:12:03;;;;;;;27.20;12.48;;;;;;;3.90;58.53;101129.59;5007508;28;115093;-63
2021/12/23 09:14:33;;;;;;;27.98;12.98;;;;;;;3.93;58.54;101130.44;4993562;28;113959;-63
2021/12/23 09:17:02;;;;;;;30.25;13.68;;;;;;;3.95;58.38;101121.66;5013233;28;124467;-64
2021/12/23 09:19:30;;;;;;;29.10;12.75;;;;;;;3.97;58.58;101119.88;5015323;28;124297;-62
2021/12/23 09:21:57;;;;;;;29.90;13.32;;;;;;;4.01;58.36;101116.34;5009323;28;114126;-63
2021/12/23 09:24:26;;;;;;;28.35;12.25;;;;;;;4.04;58.48;101113.66;5008625;28;113985;-63
2021/12/23 09:27:01;;;;;;;27.95;12.65;;;;;;;4.08;58.53;101123.22;5009646;28;124158;-63
2021/12/23 09:35:02;;;;;;;29.83;13.48;;;;;;;4.22;58.53;101119.53;5009381;28;114476;-63
2021/12/23 09:37:30;;;;;;;29.85;13.02;;;;;;;4.24;58.44;101117.78;5007854;28;124360;-63
2021/12/23 09:39:58;;;;;;;28.67;12.98;;;;;;;4.28;58.74;101124.72;5007978;28;124013;-63
2021/12/23 09:42:28;;;;;;;31.88;13.52;;;;;;;4.31;58.72;101119.41;4993227;28;113689;-63
2021/12/23 09:44:59;;;;;;;30.15;12.85;;;;;;;4.35;58.54;101110.63;5028445;28;114571;-63
2021/12/23 09:47:29;;;;;;;25.25;12.30;;;;;;;4.39;58.57;101109.69;5028884;28;124267;-63
2021/12/23 09:49:59;;;;;;;28.33;12.65;;;;;;;4.43;58.63;101098.25;5027487;28;124043;-63
2021/12/23 09:52:31;;;;;;;28.58;12.60;;;;;;;4.45;58.43;101096.47;5030000;28;114873;-63
2021/12/23 09:55:03;;;;;;;29.85;13.43;;;;;;;4.47;58.08;101089.44;5017356;28;114231;-63
2021/12/23 09:57:31;;;;;;;30.55;13.35;;;;;;;4.52;58.49;101085.88;5013578;28;124355;-63
2021/12/23 09:59:59;;;;;;;27.35;12.52;;;;;;;4.55;58.62;101072.72;5019139;28;123634;-63
2021/12/23 10:02:26;;;;;;;28.27;12.55;;;;;;;4.58;58.43;101070.06;5008659;28;116553;-63
2021/12/23 10:04:54;;;;;;;26.55;12.05;;;;;;;4.60;58.46;101073.53;5007657;28;115176;-63
2021/12/23 10:07:21;;;;;;;29.55;13.48;;;;;;;4.62;58.46;101074.34;5009492;28;124511;-63
2021/12/23 10:39:47;;;;;;;31.13;13.32;;;;;;;5.07;58.41;101027.19;4992636;28;123092;-65
2021/12/23 10:42:33;;;;;;;26.58;12.55;;;;;;;5.11;58.46;101012.25;5009063;28;123937;-64
2021/12/23 10:45:09;;;;;;;26.77;11.93;;;;;;;5.16;58.61;101006.00;5010477;28;115585;-64
2021/12/23 10:47:47;;;;;;;29.42;12.20;;;;;;;5.20;58.42;100996.31;5010287;28;113752;-62
2021/12/23 10:53:37;;;;;;;28.95;12.57;;;;;;;5.34;58.42;100982.88;5009764;28;123972;-63
2021/12/23 10:59:13;;;;;;;28.30;12.27;;;;;;;5.46;58.65;100972.09;4992490;28;114172;-63
2021/12/23 11:02:02;;;;;;;26.88;12.23;;;;;;;5.51;58.37;100965.00;5008725;28;123860;-63
2021/12/23 11:04:36;;;;;;;26.27;12.00;;;;;;;5.55;58.27;100958.75;5008302;28;124265;-63
2021/12/23 11:07:19;;;;;;;28.85;11.68;;;;;;;5.59;58.53;100957.78;4993041;28;113387;-65
2021/12/23 11:10:15;;;;;;;26.85;11.60;;;;;;;5.65;58.23;100952.41;5008023;28;113936;-63
2021/12/23 11:40:25;;;;;;;27.52;10.95;;;;;;;6.01;58.30;100902.53;5007469;28;114994;-63
2021/12/23 11:43:13;;;;;;;26.15;11.52;;;;;;;6.03;58.23;100884.94;5013795;28;114352;-63
2021/12/23 11:45:47;;;;;;;26.50;11.85;;;;;;;6.07;57.81;100879.63;5029159;28;124071;-63
2021/12/23 11:48:15;;;;;;;28.52;11.50;;;;;;;6.10;58.16;100874.25;5030741;28;124272;-63
2021/12/23 11:50:54;;;;;;;27.90;11.57;;;;;;;6.13;57.85;100868.94;4997375;28;114097;-63
2021/12/23 11:53:26;;;;;;;28.13;12.20;;;;;;;6.15;58.03;100861.88;5021205;27;114920;-63
2021/12/23 11:55:54;;;;;;;28.05;12.05;;;;;;;6.17;57.97;100860.06;5014559;27;124813;-63
2021/12/23 11:58:24;;;;;;;27.33;11.52;;;;;;;6.20;58.12;100849.47;5019167;27;123560;-63
2021/12/23 12:01:06;;;;;;;27.02;12.13;;;;;;;6.22;57.85;100851.13;5015741;28;114128;-63
2021/12/23 12:03:50;;;;;;;26.40;12.38;;;;;;;6.26;57.79;100832.66;5017387;27;114930;-63
2021/12/23 12:06:20;;;;;;;26.08;11.43;;;;;;;6.30;57.78;100839.56;5017373;28;124068;-62
2021/12/23 12:08:54;;;;;;;25.02;11.27;;;;;;;6.32;58.05;100833.34;5018261;28;123991;-63
2021/12/23 12:11:25;;;;;;;27.25;11.98;;;;;;;6.35;57.94;100821.88;5015519;28;114303;-63
2021/12/23 12:13:52;;;;;;;27.75;12.40;;;;;;;6.39;57.66;100824.38;5015656;28;114721;-63
2021/12/23 12:16:29;;;;;;;25.73;11.40;;;;;;;6.42;57.81;100813.78;5011421;27;124149;-63
2021/12/23 12:18:57;;;;;;;29.25;12.23;;;;;;;6.46;57.78;100800.53;5019763;28;124230;-64
2021/12/23 12:21:36;;;;;;;26.85;11.63;;;;;;;6.52;57.85;100800.38;5016844;28;114800;-63
2021/12/23 12:24:18;;;;;;;26.67;11.77;;;;;;;6.57;58.18;100801.97;5013068;28;114104;-63
2021/12/23 12:26:52;;;;;;;29.85;11.82;;;;;;;6.62;58.08;100801.81;5012883;27;124398;-63
2021/12/23 12:29:25;;;;;;;28.55;12.10;;;;;;;6.68;57.97;100808.66;5011485;28;123775;-63
2021/12/23 12:31:52;;;;;;;31.13;11.82;;;;;;;6.72;57.90;100792.72;5009735;28;115439;-63
2021/12/23 12:34:30;;;;;;;26.05;11.80;;;;;;;6.77;58.20;100782.91;5015245;28;114495;-63
2021/12/23 12:36:59;;;;;;;26.70;12.13;;;;;;;6.81;57.66;100774.00;5017141;28;124716;-63